Time;durP1;ratioP1;P1;durP2;ratioP2;P2;SDS_P1;SDS_P2;PMS_P1;PMS_P2;Temp;Humidity;BMP_temperature;BMP_pressure;BME280_temperature;BME280_humidity;BME280_pressure;Samples;Min_cycle;Max_cycle;Signal;HPM_P1;HPM_P2
2022/01/21 00:01:39;;;;;;;2.03;1.10;;;9.20;99.90;;;;;;5023264;28;20221;-92
2022/01/21 00:04:13;;;;;;;4.80;1.03;;;9.10;99.90;;;;;;5040162;28;20234;-94
2022/01/21 00:06:45;;;;;;;1.20;0.80;;;9.10;99.90;;;;;;5033491;28;20457;-92
2022/01/21 00:09:19;;;;;;;4.30;0.93;;;9.00;99.90;;;;;;5036048;28;20197;-94
2022/01/21 00:11:53;;;;;;;7.03;1.30;;;8.90;99.90;;;;;;5032527;28;20217;-93
2022/01/21 00:14:24;;;;;;;2.40;0.80;;;8.80;99.90;;;;;;5028882;28;20677;-93
2022/01/21 00:16:56;;;;;;;1.87;0.97;;;8.70;99.90;;;;;;5029857;28;20279;-94
2022/01/21 00:19:36;;;;;;;2.60;0.97;;;8.60;99.90;;;;;;5016522;28;20202;-94
2022/01/21 00:30:57;;;;;;;2.20;0.70;;;8.30;99.90;;;;;;5058757;23;20245;-93
2022/01/21 00:33:28;;;;;;;1.80;0.73;;;8.30;99.90;;;;;;5033219;28;20205;-94
2022/01/21 00:36:05;;;;;;;1.70;0.47;;;8.30;99.90;;;;;;5014053;28;20210;-93
2022/01/21 00:38:40;;;;;;;1.77;0.60;;;8.20;99.90;;;;;;5027840;28;20243;-93
2022/01/21 00:41:17;;;;;;;2.17;0.97;;;8.20;99.90;;;;;;5030207;28;20235;-93
2022/01/21 00:43:57;;;;;;;2.27;0.83;;;8.20;99.90;;;;;;5035437;28;20201;-94
2022/01/21 00:46:28;;;;;;;2.67;0.80;;;8.10;99.90;;;;;;5033592;28;20209;-94
2022/01/21 00:49:01;;;;;;;3.40;0.93;;;8.20;99.90;;;;;;5033968;28;20206;-93
2022/01/21 00:51:35;;;;;;;2.23;1.17;;;8.10;99.90;;;;;;5030656;28;20573;-94
2022/01/21 00:54:05;;;;;;;1.40;0.60;;;8.10;99.90;;;;;;5033303;28;20224;-93
2022/01/21 00:56:37;;;;;;;3.30;0.93;;;8.00;99.90;;;;;;5032802;28;20198;-93
2022/01/21 00:59:08;;;;;;;3.60;0.90;;;8.00;99.90;;;;;;5028628;28;20209;-94
2022/01/21 01:01:40;;;;;;;7.17;1.50;;;8.00;99.90;;;;;;5016755;28;20205;-93
2022/01/21 01:04:12;;;;;;;2.40;0.90;;;8.00;99.90;;;;;;5031885;28;20200;-94
2022/01/21 01:06:46;;;;;;;3.37;0.83;;;8.00;99.90;;;;;;5027631;28;20256;-94
2022/01/21 01:09:18;;;;;;;1.90;0.80;;;7.80;99.90;;;;;;5032989;28;20221;-94
2022/01/21 01:12:05;;;;;;;2.80;0.70;;;7.60;99.90;;;;;;5033666;28;20205;-94
2022/01/21 01:20:17;;;;;;;6.00;1.30;;;7.40;99.90;;;;;;5032988;28;20210;-93
2022/01/21 01:22:56;;;;;;;1.97;1.10;;;7.40;99.90;;;;;;5031284;28;20261;-94
2022/01/21 01:28:17;;;;;;;2.90;1.37;;;7.40;99.90;;;;;;5032587;28;20239;-92
2022/01/21 01:30:48;;;;;;;6.00;1.70;;;7.40;99.90;;;;;;5033036;28;20212;-94
2022/01/21 01:33:24;;;;;;;4.23;1.70;;;7.30;99.90;;;;;;5013761;28;20237;-93
2022/01/21 01:35:55;;;;;;;3.37;1.03;;;7.40;99.90;;;;;;5030256;28;20224;-93
2022/01/21 01:41:15;;;;;;;2.10;1.30;;;7.30;99.90;;;;;;5030823;28;20228;-92
2022/01/21 01:49:29;;;;;;;2.93;0.67;;;7.40;99.90;;;;;;5033757;28;20225;-93
2022/01/21 01:52:02;;;;;;;2.93;1.13;;;7.40;99.90;;;;;;5034519;28;20275;-92
2022/01/21 01:54:37;;;;;;;4.00;1.03;;;7.40;99.90;;;;;;5036230;28;20243;-94
2022/01/21 01:57:10;;;;;;;2.03;1.13;;;7.40;99.90;;;;;;5033712;28;20205;-94
2022/01/21 01:59:42;;;;;;;2.63;0.90;;;7.40;99.90;;;;;;5032963;28;20221;-94
2022/01/21 02:02:18;;;;;;;5.23;1.10;;;7.40;99.90;;;;;;5033644;28;20236;-94
2022/01/21 02:04:51;;;;;;;7.50;1.20;;;7.40;99.90;;;;;;5027557;28;20215;-93
2022/01/21 02:07:22;;;;;;;2.03;1.00;;;7.40;99.90;;;;;;5032039;28;20225;-94
2022/01/21 02:09:55;;;;;;;2.43;0.77;;;7.40;99.90;;;;;;5031687;28;20259;-93
2022/01/21 02:12:27;;;;;;;2.40;0.87;;;7.40;99.90;;;;;;5034279;28;20206;-93
2022/01/21 02:15:01;;;;;;;3.27;0.80;;;7.40;99.90;;;;;;5034143;28;20189;-91
2022/01/21 02:23:10;;;;;;;1.70;0.83;;;7.40;99.90;;;;;;5037951;28;20200;-94
2022/01/21 02:25:43;;;;;;;2.70;1.30;;;7.40;99.90;;;;;;5036626;28;20224;-92
2022/01/21 02:28:16;;;;;;;2.80;1.30;;;7.50;99.90;;;;;;5037301;28;20216;-93
2022/01/21 02:30:55;;;;;;;3.27;1.40;;;7.40;99.90;;;;;;5200998;23;20236;-93
2022/01/21 02:33:31;;;;;;;2.37;1.10;;;7.40;99.90;;;;;;5038004;28;20208;-94
2022/01/21 02:36:03;;;;;;;4.10;1.20;;;7.40;99.90;;;;;;5037964;28;20220;-92
2022/01/21 02:38:37;;;;;;;2.30;1.20;;;7.40;99.90;;;;;;5037602;28;20235;-93
2022/01/21 02:41:08;;;;;;;4.33;1.57;;;7.40;99.90;;;;;;5037212;28;20223;-94
2022/01/21 02:43:39;;;;;;;2.10;1.50;;;7.50;99.90;;;;;;5037730;28;20189;-94
2022/01/21 02:46:10;;;;;;;5.57;1.83;;;7.40;99.90;;;;;;5037271;28;20284;-95
2022/01/21 02:48:42;;;;;;;4.53;2.20;;;7.40;99.90;;;;;;5036975;28;20200;-95
2022/01/21 02:51:15;;;;;;;3.10;2.20;;;7.40;99.90;;;;;;5037091;28;20211;-94
2022/01/21 02:56:37;;;;;;;3.70;2.60;;;7.40;99.90;;;;;;5036892;28;20197;-94
2022/01/21 02:59:10;;;;;;;2.93;2.40;;;7.40;99.90;;;;;;5037816;28;20205;-94
2022/01/21 03:01:43;;;;;;;4.27;2.30;;;7.50;99.90;;;;;;5037370;28;20297;-93
2022/01/21 03:04:29;;;;;;;4.03;2.80;;;7.50;99.90;;;;;;5037267;28;20196;-94
2022/01/21 03:07:00;;;;;;;3.83;2.63;;;7.40;99.90;;;;;;5036141;28;20252;-95
2022/01/21 03:09:34;;;;;;;4.87;2.90;;;7.40;99.90;;;;;;5055715;28;20208;-95
2022/01/21 03:12:07;;;;;;;3.40;2.53;;;7.40;99.90;;;;;;5050822;28;20270;-94
2022/01/21 03:14:39;;;;;;;3.93;2.20;;;7.40;99.90;;;;;;5040574;28;20197;-94
2022/01/21 03:17:11;;;;;;;2.30;2.10;;;7.40;99.90;;;;;;5039840;28;20583;-94
2022/01/21 03:19:42;;;;;;;3.40;2.30;;;7.40;99.90;;;;;;5037750;28;20193;-94
2022/01/21 03:22:15;;;;;;;2.57;2.00;;;7.40;99.90;;;;;;5037175;28;20209;-94
2022/01/21 03:24:49;;;;;;;2.47;2.10;;;7.40;99.90;;;;;;5020896;28;20240;-94
2022/01/21 03:27:21;;;;;;;2.90;2.40;;;7.40;99.90;;;;;;5034668;28;20236;-94
2022/01/21 03:29:53;;;;;;;2.03;1.47;;;7.40;99.90;;;;;;5037636;28;20205;-94
2022/01/21 03:32:26;;;;;;;2.73;1.50;;;7.50;99.90;;;;;;5037911;28;20193;-93
2022/01/21 03:34:59;;;;;;;1.97;1.60;;;7.40;99.90;;;;;;5037042;28;20241;-92
2022/01/21 03:37:31;;;;;;;3.87;2.07;;;7.50;99.90;;;;;;5038204;28;20200;-93
2022/01/21 03:40:11;;;;;;;1.90;1.23;;;7.50;99.90;;;;;;5026584;28;20205;-94
2022/01/21 03:42:42;;;;;;;2.33;1.37;;;7.60;99.90;;;;;;5038248;28;20202;-94
2022/01/21 03:45:14;;;;;;;2.83;1.80;;;7.50;99.90;;;;;;5034505;28;20205;-94
2022/01/21 03:47:52;;;;;;;2.60;1.20;;;7.50;99.90;;;;;;5034603;28;20241;-94
2022/01/21 03:50:30;;;;;;;3.70;1.30;;;7.50;99.90;;;;;;5034374;28;20236;-94
2022/01/21 03:53:02;;;;;;;5.83;0.93;;;7.40;99.90;;;;;;5036798;28;20209;-94
2022/01/21 03:55:36;;;;;;;2.17;0.83;;;7.20;99.90;;;;;;5036354;28;20206;-94
2022/01/21 03:58:08;;;;;;;4.60;1.37;;;7.20;99.90;;;;;;5035848;28;20213;-94
2022/01/21 04:00:43;;;;;;;2.90;1.30;;;7.20;99.90;;;;;;5034406;28;20270;-93
2022/01/21 04:03:15;;;;;;;2.63;1.23;;;7.10;99.90;;;;;;5034488;28;20204;-94
2022/01/21 04:05:47;;;;;;;4.60;2.17;;;7.10;99.90;;;;;;5027915;28;20241;-94
2022/01/21 04:08:19;;;;;;;3.27;1.40;;;7.10;99.90;;;;;;5032678;28;20218;-94
2022/01/21 04:10:53;;;;;;;3.47;1.57;;;7.10;99.90;;;;;;5034606;28;20213;-94
2022/01/21 04:13:29;;;;;;;4.17;1.87;;;7.10;99.90;;;;;;5032770;28;20300;-95
2022/01/21 04:16:01;;;;;;;3.23;1.33;;;7.10;99.90;;;;;;5033414;28;20217;-94
2022/01/21 04:18:33;;;;;;;5.37;2.27;;;7.20;99.90;;;;;;5021784;28;20201;-95
2022/01/21 04:21:04;;;;;;;2.60;1.50;;;7.20;99.90;;;;;;5026109;28;20205;-94
2022/01/21 04:23:35;;;;;;;4.23;1.50;;;7.20;99.90;;;;;;5031830;28;20202;-94
2022/01/21 04:26:11;;;;;;;3.67;1.23;;;7.20;99.90;;;;;;5034397;28;20229;-94
2022/01/21 04:28:43;;;;;;;3.53;1.10;;;7.20;99.90;;;;;;5406735;23;20248;-93
2022/01/21 04:31:16;;;;;;;3.13;1.00;;;7.20;99.90;;;;;;5034233;28;20197;-92
2022/01/21 04:33:48;;;;;;;3.50;1.87;;;7.20;99.90;;;;;;5036888;28;20260;-94
2022/01/21 04:36:19;;;;;;;4.63;2.40;;;7.30;99.90;;;;;;5038520;28;20216;-93
2022/01/21 04:38:54;;;;;;;4.60;2.00;;;7.30;99.90;;;;;;5033233;28;20216;-93
2022/01/21 04:41:53;;;;;;;3.20;1.73;;;7.30;99.90;;;;;;5057841;28;20224;-93
2022/01/21 04:47:18;;;;;;;2.60;1.30;;;7.20;99.90;;;;;;5016600;28;20309;-93
2022/01/21 04:49:51;;;;;;;4.40;1.43;;;7.20;99.90;;;;;;5013520;28;20205;-94
2022/01/21 04:52:23;;;;;;;4.20;1.27;;;7.20;99.90;;;;;;5008551;28;20206;-93
2022/01/21 04:54:55;;;;;;;2.70;1.03;;;7.20;99.90;;;;;;5255587;23;20730;-93
2022/01/21 04:57:29;;;;;;;2.67;1.13;;;7.20;99.90;;;;;;5018662;28;20197;-94
2022/01/21 05:00:00;;;;;;;3.10;1.10;;;7.20;99.90;;;;;;5026586;28;20634;-94
2022/01/21 05:02:33;;;;;;;3.50;2.60;;;7.10;99.90;;;;;;5031263;28;20221;-94
2022/01/21 05:05:04;;;;;;;8.07;2.70;;;7.10;99.90;;;;;;5030141;28;20309;-94
2022/01/21 05:07:37;;;;;;;3.27;1.43;;;7.20;99.90;;;;;;5018271;28;20279;-93
2022/01/21 05:10:10;;;;;;;1.67;1.23;;;7.20;99.90;;;;;;5019805;28;20206;-94
2022/01/21 05:12:43;;;;;;;2.30;1.70;;;7.10;99.90;;;;;;5002574;28;20319;-94
2022/01/21 05:15:41;;;;;;;1.90;1.47;;;7.10;99.90;;;;;;5030520;28;20208;-94
2022/01/21 05:18:12;;;;;;;5.07;1.70;;;7.10;99.90;;;;;;5018606;28;20213;-94
2022/01/21 05:20:42;;;;;;;4.23;1.30;;;6.90;99.90;;;;;;5019694;28;20271;-94
2022/01/21 05:23:14;;;;;;;2.63;1.37;;;6.70;99.90;;;;;;5031392;28;20212;-94
2022/01/21 05:25:47;;;;;;;7.73;1.57;;;6.60;99.90;;;;;;5012040;28;20236;-94
2022/01/21 05:28:19;;;;;;;2.77;1.83;;;6.60;99.90;;;;;;5018537;28;20265;-94
2022/01/21 05:30:50;;;;;;;6.20;3.37;;;6.50;99.90;;;;;;5018462;28;20240;-93
2022/01/21 05:33:21;;;;;;;4.10;3.37;;;6.50;99.90;;;;;;5033731;28;20214;-92
2022/01/21 05:35:52;;;;;;;5.53;3.63;;;6.40;99.90;;;;;;5024048;28;20286;-94
2022/01/21 05:38:24;;;;;;;4.13;2.87;;;6.30;99.90;;;;;;5018949;28;20221;-92
2022/01/21 05:40:55;;;;;;;6.80;2.80;;;6.30;99.90;;;;;;5018584;28;20241;-93
2022/01/21 05:43:28;;;;;;;3.47;2.53;;;6.20;99.90;;;;;;5021749;28;20266;-94
2022/01/21 05:48:47;;;;;;;3.37;1.80;;;6.10;99.90;;;;;;5029065;28;20237;-94
2022/01/21 05:51:18;;;;;;;3.07;1.53;;;6.10;99.90;;;;;;5025050;28;20209;-94
2022/01/21 05:53:49;;;;;;;3.13;1.63;;;6.10;99.90;;;;;;5022208;28;20201;-93
2022/01/21 05:56:24;;;;;;;3.13;1.60;;;6.10;99.90;;;;;;5018622;28;20248;-95
2022/01/21 05:58:57;;;;;;;1.60;1.50;;;6.10;99.90;;;;;;5020321;28;20243;-94
2022/01/21 06:01:28;;;;;;;2.20;1.50;;;6.00;99.90;;;;;;5022887;28;20307;-93
2022/01/21 06:04:00;;;;;;;2.97;1.70;;;6.00;99.90;;;;;;5018213;28;20317;-93
2022/01/21 06:06:31;;;;;;;2.27;1.50;;;6.10;99.90;;;;;;4999094;28;20239;-93
2022/01/21 06:09:03;;;;;;;4.20;1.83;;;6.00;99.90;;;;;;5016372;28;20241;-93
2022/01/21 06:11:35;;;;;;;2.33;1.60;;;6.10;99.90;;;;;;5022047;28;20670;-93
2022/01/21 06:14:08;;;;;;;5.00;1.80;;;6.00;99.90;;;;;;5019176;28;20217;-92
2022/01/21 06:16:40;;;;;;;3.93;1.70;;;6.00;99.90;;;;;;4999486;28;20202;-94
2022/01/21 06:19:11;;;;;;;3.93;2.50;;;6.00;99.90;;;;;;4997693;28;20210;-93
2022/01/21 06:21:43;;;;;;;4.00;1.97;;;6.00;99.90;;;;;;5000083;28;20210;-93
2022/01/21 06:24:14;;;;;;;4.23;2.00;;;6.00;99.90;;;;;;5002168;28;20211;-94
2022/01/21 06:26:45;;;;;;;3.97;1.80;;;6.10;99.90;;;;;;5003855;28;20202;-94
2022/01/21 06:29:18;;;;;;;4.43;1.80;;;6.10;99.90;;;;;;5005492;28;20206;-93
2022/01/21 06:31:49;;;;;;;5.77;1.80;;;6.20;99.90;;;;;;4998276;28;20203;-94
2022/01/21 06:34:21;;;;;;;2.83;1.73;;;6.20;99.90;;;;;;5003919;28;20205;-93
2022/01/21 06:36:54;;;;;;;2.53;1.40;;;6.30;99.90;;;;;;5010886;28;20217;-95
2022/01/21 06:39:25;;;;;;;3.20;1.23;;;6.40;99.90;;;;;;5006816;28;20625;-93
2022/01/21 06:41:56;;;;;;;2.03;1.30;;;6.40;99.90;;;;;;5020023;28;20278;-94
2022/01/21 06:44:29;;;;;;;2.07;1.20;;;6.40;99.90;;;;;;5019276;28;20681;-93
2022/01/21 06:47:00;;;;;;;1.70;1.00;;;6.40;99.90;;;;;;5020372;28;20228;-94
2022/01/21 06:49:32;;;;;;;1.83;0.70;;;6.50;99.90;;;;;;5020642;28;20216;-94
2022/01/21 06:52:02;;;;;;;2.80;0.93;;;6.50;99.90;;;;;;5023758;28;20215;-91
2022/01/21 06:54:33;;;;;;;3.80;1.00;;;6.50;99.90;;;;;;5025649;28;20213;-93
2022/01/21 06:57:06;;;;;;;2.20;0.87;;;6.40;99.90;;;;;;5035924;28;20256;-93
2022/01/21 07:02:14;;;;;;;3.63;0.90;;;6.40;99.90;;;;;;5500790;23;20240;-93
2022/01/21 07:04:45;;;;;;;3.23;1.00;;;6.40;99.90;;;;;;5015066;28;20213;-93
2022/01/21 07:07:22;;;;;;;2.63;0.80;;;6.50;99.90;;;;;;5007147;28;20209;-92
2022/01/21 07:09:55;;;;;;;1.60;0.93;;;6.60;99.90;;;;;;5024089;28;20213;-92
2022/01/21 07:12:26;;;;;;;1.93;0.80;;;6.60;99.90;;;;;;5029001;28;20205;-93
2022/01/21 07:14:57;;;;;;;2.83;0.83;;;6.60;99.90;;;;;;5028864;28;20248;-90
2022/01/21 07:17:30;;;;;;;1.77;1.00;;;6.60;99.90;;;;;;5030620;28;20205;-93
2022/01/21 07:20:01;;;;;;;2.57;0.80;;;6.60;99.90;;;;;;5034231;28;20245;-93
2022/01/21 07:22:33;;;;;;;1.73;0.90;;;6.60;99.90;;;;;;5035072;28;20221;-92
2022/01/21 07:25:05;;;;;;;2.27;1.00;;;6.50;99.90;;;;;;5034784;28;20197;-92
2022/01/21 07:27:36;;;;;;;4.63;1.00;;;6.50;99.90;;;;;;5032295;28;20197;-93
2022/01/21 07:30:08;;;;;;;5.80;1.07;;;6.50;99.90;;;;;;5025518;28;20651;-93
2022/01/21 07:32:41;;;;;;;2.10;1.10;;;6.50;99.90;;;;;;5005885;28;20247;-92
2022/01/21 07:35:14;;;;;;;1.30;0.80;;;6.50;99.90;;;;;;5020792;28;20239;-93
2022/01/21 07:38:05;;;;;;;5.53;1.10;;;6.60;99.90;;;;;;5014172;28;20206;-93
2022/01/21 07:40:37;;;;;;;1.07;0.70;;;6.60;99.90;;;;;;4999773;28;20198;-93
2022/01/21 07:43:09;;;;;;;2.63;1.07;;;6.70;99.90;;;;;;4982769;28;20218;-93
2022/01/21 07:45:40;;;;;;;1.30;0.80;;;6.70;99.90;;;;;;4999746;28;20206;-93
2022/01/21 07:48:13;;;;;;;3.03;1.00;;;6.70;99.90;;;;;;4982876;28;20266;-93
2022/01/21 07:50:43;;;;;;;3.60;0.83;;;6.70;99.90;;;;;;5000240;28;20225;-93
2022/01/21 07:53:15;;;;;;;1.60;0.90;;;6.70;99.90;;;;;;4999013;28;20226;-93
2022/01/21 07:55:50;;;;;;;3.77;0.97;;;6.70;99.90;;;;;;5001167;28;20205;-93
2022/01/21 07:58:21;;;;;;;2.33;0.93;;;6.60;99.90;;;;;;5001336;28;20249;-93
2022/01/21 08:00:53;;;;;;;2.00;0.90;;;6.60;99.90;;;;;;5003112;28;20238;-93
2022/01/21 08:03:32;;;;;;;4.97;0.80;;;6.60;99.90;;;;;;5000959;28;20228;-92
2022/01/21 08:06:03;;;;;;;1.97;1.03;;;6.60;99.90;;;;;;5001213;28;20691;-93
2022/01/21 08:08:35;;;;;;;2.63;0.90;;;6.60;99.90;;;;;;5000467;28;20690;-93
2022/01/21 08:11:06;;;;;;;1.90;1.00;;;6.70;99.90;;;;;;5001365;28;20203;-95
2022/01/21 08:13:38;;;;;;;2.13;0.97;;;6.60;99.90;;;;;;4984189;28;20305;-92
2022/01/21 08:16:09;;;;;;;3.73;1.00;;;6.70;99.90;;;;;;5001172;28;20202;-92
2022/01/21 08:18:42;;;;;;;1.60;1.00;;;6.70;99.90;;;;;;5003899;28;20256;-91
2022/01/21 08:21:18;;;;;;;2.83;0.80;;;6.70;99.90;;;;;;4999669;28;20217;-92
2022/01/21 08:23:50;;;;;;;2.47;1.00;;;6.70;99.90;;;;;;5006139;28;20209;-93
2022/01/21 08:26:23;;;;;;;1.83;0.90;;;6.70;99.90;;;;;;5003280;28;20224;-94
2022/01/21 08:28:56;;;;;;;2.33;1.30;;;6.70;99.90;;;;;;5000600;28;20241;-94
2022/01/21 08:31:27;;;;;;;1.90;0.97;;;6.70;99.90;;;;;;4998651;28;20297;-94
2022/01/21 08:34:00;;;;;;;1.30;0.80;;;6.70;99.90;;;;;;5018008;28;20223;-94
2022/01/21 08:36:32;;;;;;;2.97;1.00;;;6.80;99.90;;;;;;5006438;28;20280;-93
2022/01/21 08:39:04;;;;;;;2.72;0.90;;;6.70;99.90;;;;;;4701438;28;10001293;-94
2022/01/21 08:41:35;;;;;;;2.63;1.10;;;6.70;99.90;;;;;;4998786;28;20423;-94
2022/01/21 08:44:06;;;;;;;2.27;1.00;;;6.60;99.90;;;;;;4999302;28;20214;-94
2022/01/21 08:46:38;;;;;;;3.47;0.90;;;6.50;99.90;;;;;;5002818;28;20288;-94
2022/01/21 08:49:30;;;;;;;3.33;1.03;;;6.50;99.90;;;;;;4986851;28;20242;-95
2022/01/21 08:52:01;;;;;;;3.07;1.10;;;6.50;99.90;;;;;;5001237;28;20217;-94
2022/01/21 08:54:33;;;;;;;2.13;0.90;;;6.60;99.90;;;;;;5002220;28;20212;-94
2022/01/21 08:57:06;;;;;;;1.70;0.90;;;6.60;99.90;;;;;;5001356;28;20234;-93
2022/01/21 08:59:41;;;;;;;1.60;1.10;;;6.60;99.90;;;;;;5002057;28;20217;-94
2022/01/21 09:02:12;;;;;;;2.67;1.20;;;6.60;99.90;;;;;;5001858;28;20217;-93
2022/01/21 09:04:45;;;;;;;2.87;1.27;;;6.60;99.90;;;;;;5002540;28;20206;-94
2022/01/21 09:07:21;;;;;;;1.47;1.00;;;6.60;99.90;;;;;;5002677;28;20234;-93
2022/01/21 09:09:54;;;;;;;5.20;1.03;;;6.60;99.90;;;;;;5010352;28;20293;-93
2022/01/21 09:12:31;;;;;;;2.73;0.90;;;6.60;99.90;;;;;;5018005;28;20228;-93
2022/01/21 09:15:02;;;;;;;2.50;1.10;;;6.60;99.90;;;;;;5000852;28;20198;-93
2022/01/21 09:17:36;;;;;;;2.63;1.00;;;6.60;99.90;;;;;;4998545;28;20202;-93
2022/01/21 09:20:10;;;;;;;3.93;1.10;;;6.50;99.90;;;;;;5013645;28;20197;-93
2022/01/21 09:22:41;;;;;;;2.67;1.17;;;6.50;99.90;;;;;;5002838;28;20236;-93
2022/01/21 09:25:12;;;;;;;3.17;1.30;;;6.50;99.90;;;;;;5006565;28;20284;-94
2022/01/21 09:27:43;;;;;;;3.30;1.20;;;6.60;99.90;;;;;;5000333;28;20216;-92
2022/01/21 09:30:15;;;;;;;1.70;1.10;;;6.60;99.90;;;;;;5000458;28;20241;-92
2022/01/21 09:32:46;;;;;;;1.70;0.97;;;6.60;99.90;;;;;;4970759;28;20221;-93
2022/01/21 09:35:22;;;;;;;1.63;1.13;;;6.60;99.90;;;;;;4996003;28;20234;-91
2022/01/21 09:37:56;;;;;;;3.37;1.10;;;6.60;99.90;;;;;;4991449;28;20206;-91
2022/01/21 09:40:47;;;;;;;3.20;1.30;;;6.50;99.90;;;;;;4982821;28;20254;-93
2022/01/21 09:43:20;;;;;;;1.47;1.00;;;6.50;99.90;;;;;;4980851;28;20214;-91
2022/01/21 09:45:53;;;;;;;1.70;1.20;;;6.50;99.90;;;;;;4994009;28;20602;-93
2022/01/21 09:48:29;;;;;;;1.90;1.37;;;6.50;99.90;;;;;;4998271;28;20721;-92
2022/01/21 09:51:02;;;;;;;2.97;1.20;;;6.50;99.90;;;;;;4998153;28;20264;-92
2022/01/21 09:53:35;;;;;;;4.93;1.30;;;6.50;99.90;;;;;;4998454;28;20214;-93
2022/01/21 09:56:08;;;;;;;3.73;1.30;;;6.50;99.90;;;;;;4999721;28;20333;-91
2022/01/21 09:58:45;;;;;;;2.60;1.20;;;6.40;99.90;;;;;;4999943;28;20206;-93
2022/01/21 10:01:19;;;;;;;1.67;1.20;;;6.50;99.90;;;;;;5002121;28;20220;-93
2022/01/21 10:03:52;;;;;;;2.40;1.40;;;6.50;99.90;;;;;;5011976;28;20239;-92
2022/01/21 10:06:31;;;;;;;2.20;1.10;;;6.50;99.90;;;;;;5012268;28;20202;-92
2022/01/21 10:09:05;;;;;;;4.33;1.40;;;6.50;99.90;;;;;;5026913;28;20250;-93
2022/01/21 10:11:35;;;;;;;3.10;1.40;;;6.50;99.90;;;;;;5034220;28;20251;-93
2022/01/21 10:14:07;;;;;;;3.63;1.87;;;6.50;99.90;;;;;;5017344;28;20201;-93
2022/01/21 10:16:38;;;;;;;2.60;1.23;;;6.50;99.90;;;;;;5023012;28;20237;-92
2022/01/21 10:19:11;;;;;;;3.33;1.60;;;6.50;99.90;;;;;;5019993;28;20581;-93
2022/01/21 10:21:45;;;;;;;4.03;1.57;;;6.50;99.90;;;;;;5019949;28;20249;-93
2022/01/21 10:24:16;;;;;;;2.17;1.43;;;6.50;99.90;;;;;;5018153;28;20209;-93
2022/01/21 10:26:49;;;;;;;1.53;1.30;;;6.50;99.90;;;;;;4996254;28;20198;-93
2022/01/21 10:29:21;;;;;;;3.50;1.30;;;6.50;99.90;;;;;;5001953;28;20233;-93
2022/01/21 10:32:00;;;;;;;1.27;1.07;;;6.50;99.90;;;;;;5002911;28;20224;-92
2022/01/21 10:34:35;;;;;;;3.03;1.10;;;6.50;99.90;;;;;;5003048;28;20557;-93
2022/01/21 10:37:23;;;;;;;2.40;1.23;;;6.60;99.90;;;;;;5000949;28;20245;-93
2022/01/21 10:40:01;;;;;;;3.83;1.40;;;6.60;99.90;;;;;;4981974;28;20211;-93
2022/01/21 10:42:32;;;;;;;3.00;1.60;;;6.60;99.90;;;;;;4998950;28;20251;-93
2022/01/21 10:45:06;;;;;;;2.80;1.30;;;6.70;99.90;;;;;;4998423;28;20210;-92
2022/01/21 10:47:39;;;;;;;3.27;1.20;;;6.70;99.90;;;;;;4997442;28;20239;-93
2022/01/21 10:50:12;;;;;;;2.13;1.40;;;6.60;99.90;;;;;;4998719;28;20748;-93
2022/01/21 10:52:49;;;;;;;3.57;2.10;;;6.60;99.90;;;;;;5000764;28;20210;-93
2022/01/21 10:55:33;;;;;;;4.07;1.43;;;6.60;99.90;;;;;;4997691;28;20359;-94
2022/01/21 10:58:09;;;;;;;5.13;1.80;;;6.60;99.90;;;;;;4997350;28;20268;-93
2022/01/21 11:00:58;;;;;;;5.43;2.00;;;6.60;99.90;;;;;;4998978;28;20210;-94
2022/01/21 11:03:30;;;;;;;4.70;1.57;;;6.60;99.90;;;;;;4997005;28;20753;-94
2022/01/21 11:06:13;;;;;;;3.83;1.70;;;6.60;99.90;;;;;;4998052;28;20302;-94
2022/01/21 11:08:47;;;;;;;3.87;2.00;;;6.70;99.90;;;;;;4997693;28;20205;-93
2022/01/21 11:11:24;;;;;;;4.90;2.10;;;6.70;99.90;;;;;;4996177;28;20244;-92
2022/01/21 11:13:55;;;;;;;3.07;2.20;;;6.70;99.90;;;;;;4997281;28;20210;-93
2022/01/21 11:16:27;;;;;;;2.83;2.23;;;6.70;99.90;;;;;;4997709;28;20249;-95
2022/01/21 11:19:28;;;;;;;4.00;2.13;;;6.70;99.90;;;;;;4998431;28;20578;-93
2022/01/21 11:22:04;;;;;;;3.60;2.37;;;6.70;99.90;;;;;;4998202;28;20221;-93
2022/01/21 11:24:50;;;;;;;6.13;2.37;;;6.70;99.90;;;;;;4999338;28;20270;-93
2022/01/21 11:27:24;;;;;;;2.57;2.10;;;6.70;99.90;;;;;;5009919;28;20191;-93
2022/01/21 11:29:56;;;;;;;2.30;2.00;;;6.70;99.90;;;;;;5016228;28;20222;-92
2022/01/21 11:32:27;;;;;;;3.87;2.10;;;6.70;99.90;;;;;;5019446;28;20318;-92
2022/01/21 11:34:58;;;;;;;4.30;2.27;;;6.70;99.90;;;;;;5016485;28;20225;-93
2022/01/21 11:37:29;;;;;;;3.90;2.20;;;6.70;99.90;;;;;;5014908;28;20194;-89
2022/01/21 11:40:02;;;;;;;3.57;2.07;;;6.70;99.90;;;;;;4984082;28;20238;-93
2022/01/21 11:42:37;;;;;;;6.30;1.90;;;6.70;99.90;;;;;;4983125;28;20207;-93
2022/01/21 11:45:20;;;;;;;4.13;2.17;;;6.70;99.90;;;;;;4981529;28;20207;-93
2022/01/21 11:48:49;;;;;;;4.63;1.87;;;6.60;99.90;;;;;;4980954;28;20211;-93
2022/01/21 11:50:54;;;;;;;5.03;1.80;;;6.60;99.90;;;;;;4981305;28;20238;-93
2022/01/21 11:53:46;;;;;;;3.43;1.93;;;6.50;99.90;;;;;;4982019;28;20584;-93
2022/01/21 11:56:57;;;;;;;4.07;2.00;;;6.60;99.90;;;;;;4980482;28;20211;-93
2022/01/21 11:59:41;;;;;;;3.77;1.97;;;6.50;99.90;;;;;;4980587;28;20199;-93
2022/01/21 12:02:21;;;;;;;7.63;1.97;;;6.40;99.90;;;;;;4980825;28;20227;-94
2022/01/21 12:04:54;;;;;;;3.63;1.73;;;6.30;99.90;;;;;;4979858;28;20211;-94
2022/01/21 12:07:52;;;;;;;2.60;1.53;;;6.40;99.90;;;;;;4979989;28;20211;-94
2022/01/21 12:10:40;;;;;;;1.73;1.50;;;6.50;99.90;;;;;;4947610;28;20645;-94
2022/01/21 12:13:21;;;;;;;4.23;1.80;;;6.50;99.90;;;;;;4980955;28;20207;-93
2022/01/21 12:19:24;;;;;;;3.60;1.70;;;6.50;99.90;;;;;;4968807;28;20211;-93
2022/01/21 12:21:56;;;;;;;2.70;1.60;;;6.60;99.90;;;;;;4980703;28;20211;-93
2022/01/21 12:25:02;;;;;;;5.17;1.80;;;6.60;99.90;;;;;;4980603;28;20246;-94
2022/01/21 12:27:35;;;;;;;4.63;2.33;;;6.60;99.90;;;;;;5058669;23;20242;-92
2022/01/21 12:30:28;;;;;;;6.10;1.73;;;6.60;99.90;;;;;;4999917;28;20239;-93
2022/01/21 12:33:03;;;;;;;5.40;2.00;;;6.50;99.90;;;;;;5000087;28;20268;-92
2022/01/21 12:35:36;;;;;;;4.03;2.10;;;6.40;99.90;;;;;;4999971;28;20264;-93
2022/01/21 12:41:47;;;;;;;6.40;2.03;;;6.30;99.90;;;;;;4998685;28;20269;-93
2022/01/21 12:44:32;;;;;;;2.73;1.80;;;6.40;99.90;;;;;;4939644;29;20640;-94
2022/01/21 12:47:31;;;;;;;4.50;2.07;;;6.50;99.90;;;;;;4579364;29;10001011;-93
2022/01/21 12:50:10;;;;;;;3.83;2.03;;;6.50;99.90;;;;;;5003419;28;20217;-93
2022/01/21 12:52:49;;;;;;;3.20;1.93;;;6.50;99.90;;;;;;5026258;28;20209;-91
2022/01/21 12:58:14;;;;;;;4.93;2.07;;;6.60;99.90;;;;;;5012533;28;20273;-92
2022/01/21 13:00:46;;;;;;;5.03;2.10;;;6.60;99.90;;;;;;5033560;23;20237;-92
2022/01/21 13:03:28;;;;;;;4.77;2.60;;;6.60;99.90;;;;;;5003824;28;20211;-92
2022/01/21 13:06:06;;;;;;;4.87;2.10;;;6.60;99.90;;;;;;4999970;28;20218;-92
2022/01/21 13:08:43;;;;;;;5.03;2.40;;;6.60;99.90;;;;;;5000374;28;20232;-93
2022/01/21 13:11:29;;;;;;;4.13;2.17;;;6.60;99.90;;;;;;4999593;28;20306;-92
2022/01/21 13:14:24;;;;;;;5.90;2.53;;;6.60;99.90;;;;;;4981800;28;20233;-92
2022/01/21 13:17:00;;;;;;;4.00;2.47;;;6.60;99.90;;;;;;4998423;28;20222;-92
2022/01/21 13:19:45;;;;;;;4.77;2.50;;;6.60;99.90;;;;;;4998856;28;20212;-93
2022/01/21 13:22:23;;;;;;;4.77;3.00;;;6.60;99.90;;;;;;4998022;28;20962;-92
2022/01/21 13:25:03;;;;;;;3.37;2.50;;;6.60;99.90;;;;;;4998122;28;20260;-92
2022/01/21 13:27:37;;;;;;;5.53;2.67;;;6.60;99.90;;;;;;4997731;28;20223;-93
2022/01/21 13:30:09;;;;;;;7.53;2.90;;;6.60;99.90;;;;;;4998564;28;20635;-93
2022/01/21 13:32:40;;;;;;;4.57;2.23;;;6.60;99.90;;;;;;4998538;28;20301;-93
2022/01/21 13:35:15;;;;;;;3.90;2.60;;;6.50;99.90;;;;;;4998878;28;20225;-94
2022/01/21 13:38:02;;;;;;;7.67;2.93;;;6.50;99.90;;;;;;4998556;28;20224;-93
2022/01/21 13:40:35;;;;;;;5.03;3.27;;;6.60;99.90;;;;;;4999760;28;20257;-94
2022/01/21 13:43:14;;;;;;;4.53;2.93;;;6.60;99.90;;;;;;5000621;28;20206;-93
2022/01/21 13:45:55;;;;;;;4.57;3.07;;;6.60;99.90;;;;;;5017622;28;20201;-93
2022/01/21 13:48:26;;;;;;;5.13;3.30;;;6.60;99.90;;;;;;5016938;28;20218;-93
2022/01/21 13:51:01;;;;;;;6.57;3.20;;;6.50;99.90;;;;;;5016596;28;20321;-92
2022/01/21 13:53:40;;;;;;;7.00;3.43;;;6.30;99.90;;;;;;5016122;28;20206;-92
2022/01/21 13:56:15;;;;;;;6.60;3.73;;;6.20;99.90;;;;;;5007308;28;20205;-92
2022/01/21 13:58:46;;;;;;;6.60;3.50;;;6.10;99.90;;;;;;4998521;28;20217;-93
2022/01/21 14:01:21;;;;;;;6.73;3.53;;;6.10;99.90;;;;;;4999293;28;20238;-94
2022/01/21 14:03:53;;;;;;;7.23;3.80;;;6.10;99.90;;;;;;4998079;28;20288;-93
2022/01/21 14:06:27;;;;;;;6.73;3.50;;;6.10;99.90;;;;;;4997420;28;20253;-93
2022/01/21 14:09:00;;;;;;;5.83;3.50;;;6.10;99.90;;;;;;4985927;28;20213;-93
2022/01/21 14:11:41;;;;;;;6.47;3.87;;;6.10;99.90;;;;;;4977970;28;20242;-94
2022/01/21 14:14:15;;;;;;;5.37;3.50;;;6.10;99.90;;;;;;4978026;28;20226;-93
2022/01/21 14:16:50;;;;;;;6.00;3.63;;;6.20;99.90;;;;;;4975591;28;20267;-93
2022/01/21 14:19:23;;;;;;;6.97;4.17;;;6.20;99.90;;;;;;4976284;28;20214;-93
2022/01/21 14:22:08;;;;;;;10.63;4.37;;;6.20;99.90;;;;;;4976359;28;20358;-93
2022/01/21 14:24:44;;;;;;;6.97;4.43;;;6.10;99.90;;;;;;4989688;28;20266;-92
2022/01/21 14:27:22;;;;;;;9.37;5.00;;;6.00;99.90;;;;;;4989845;28;20219;-94
2022/01/21 14:29:59;;;;;;;6.97;4.33;;;6.10;99.90;;;;;;4991194;28;20207;-92